Ashland, WI

7:28 AM CDT on June 03, 2015 (GMT -0500)
Near Northland College | | Change Station
CLOSE
Current Station
Personal Weather Station
Location: Ashland, WI
Elevation: 689 ft
Nearby Weather Stations

Elev 689 ft 46.58 °N, 90.88 °W | Updated 11 minutes ago

Overcast
Overcast
58.0 °F
Feels Like 58.0 °F
N
1.0
Wind Variable Wind from West
Gusts 2.0 mph

Today
High -- | Low -- °F
--% Chance of Precip.
Yesterday
High -- | Low -- °F
Precip. -- in
5:13 AM 8:50 PM
Full, 99% visible
Pressure 29.92 in
Visibility 9.0 miles
Clouds Overcast 4700 ft
Dew Point 56 °F
Humidity 92%
Rainfall 0.15 in
Snow Depth Not available.
UV 0 out of 12
Pollen 3.80 out of 12
Air Quality Not available.
Flu Activity Sporadic
METAR KASX 031153Z AUTO VRB03KT 9SM -RA OVC047 15/12 A2992 RMK AO2 LTG DSNT ALQDS RAB17E29B48 TSB04E24B26E41 SLP130 P0007 60007 70007 T01500122 10167 20122 55001

More Conditions Fewer Conditions

Pressure 29.92 in
Visibility 9.0 miles
Clouds Overcast 4700 ft
Dew Point 56 °F
Humidity 92%
Rainfall 0.15 in
Snow Depth Not available.
UV 0 out of 12
Pollen 3.80 out of 12
Air Quality Not available.
Flu Activity Sporadic
METAR KASX 031153Z AUTO VRB03KT 9SM -RA OVC047 15/12 A2992 RMK AO2 LTG DSNT ALQDS RAB17E29B48 TSB04E24B26E41 SLP130 P0007 60007 70007 T01500122 10167 20122 55001

More Conditions Fewer Conditions

10-Day Weather Forecast

×

Almanac

Astronomy

Jun. 03, 2015 Rise Set
Actual Time
Civil Twilight
Nautical Twilight
Astronomical Twilight
Moon
Length of Visible Light
Length of Day
Tomorrow will be .
, % of the Moon is Illuminated

Today's Extremes

State Highs State Lows

Community

WunderPhotos

Upload Photos

1,826,205 photos uploaded!

WunderBlogs® & News

Nearby

Air Quality

  Air Quality AQ Index Pollutant
Not available.

Snow Depth

Station Depth Elevation

Earthquake Activity

City Distance Mag. Time & Date
Minimum magnitude displayed is 2.5.

Coastal Water Temperatures

Place Temperature

Stations

Nearby Weather Stations

Station Location Temp. Windchill Dew Point Humidity Wind Precip. Elev Updated Type